Pct Moose — CGCZ — position and weather

sailwx.info

Track history (hours):
 
Tides and Currents Weather Stations Pressure Air Temp Water Temp Dewpoint Dewpoint Depression Visibility Wind Speed Wind Dir Waves Ship Positions

Pct Moose

Last reported at 2015-Jan-31 14:33 UTC. Time now 2015-Jan-31 14:42 UTC.
Position N 49°07' W 123°11'.

Type: Military. MMSI: 316013412.

Date/timePositionNaut miles runAvg speedWind from/ knotsBaromVisibWave heightAir tempDewpointWater temp
2015-Jan-31 14:33N 49°07' W 123°11'0 0.0
2015-Jan-31 13:33N 49°07' W 123°11'0 0.0
2015-Jan-31 12:33N 49°07' W 123°11'0 0.0
2015-Jan-31 11:29N 49°07' W 123°11'0 0.0
2015-Jan-31 10:32N 49°07' W 123°11'0 0.0
2015-Jan-31 09:30N 49°07' W 123°11'0 0.0
2015-Jan-31 08:33N 49°07' W 123°11'0 0.0
2015-Jan-31 07:26N 49°07' W 123°11'0 0.0
2015-Jan-31 06:29N 49°07' W 123°11'0 0.0
2015-Jan-31 05:32N 49°07' W 123°11'0 0.0
2015-Jan-31 04:32N 49°07' W 123°11'0 0.0
2015-Jan-31 03:32N 49°07' W 123°11'0 0.0
2015-Jan-31 02:32N 49°07' W 123°11'0 0.0
2015-Jan-31 01:31N 49°07' W 123°11'0 0.0
2015-Jan-31 00:31N 49°07' W 123°11'0 0.0
2015-Jan-30 23:31N 49°07' W 123°11'0 0.0
2015-Jan-30 22:31N 49°07' W 123°11'4 4.2
2015-Jan-30 21:33N 49°07' W 123°17'5 4.9
2015-Jan-30 20:33N 49°09' W 123°23'6 6.4
2015-Jan-30 19:34N 49°15' W 123°21'9 9.4
2015-Jan-30 18:33N 49°19' W 123°07'1 0.9
2015-Jan-30 17:33N 49°18' W 123°07'0 0.0
2015-Jan-30 16:33N 49°18' W 123°07'6 6.4
2015-Jan-30 15:33N 49°18' W 123°17'1515.0
2015-Jan-30 14:33N 49°22' W 123°39'1211.9
2015-Jan-30 13:33N 49°25' W 123°57'1210.2
2015-Jan-30 12:25N 49°34' W 124°08'26 8.9
2015-Jan-30 09:31N 49°52' W 124°36'6 6.3
2015-Jan-30 08:33N 49°48' W 124°43'1010.2
2015-Jan-30 07:33N 49°39' W 124°37'1212.0
2015-Jan-30 06:33N 49°30' W 124°25'1211.5
2015-Jan-30 05:33N 49°21' W 124°13'6 6.4
2015-Jan-30 04:33N 49°16' W 124°08'1 0.8
2015-Jan-30 03:33N 49°16' W 124°09'0 0.0
2015-Jan-30 02:33N 49°16' W 124°09'0 0.0
2015-Jan-30 01:33N 49°16' W 124°09'0 0.0
2015-Jan-30 00:33N 49°16' W 124°09'1 1.3
2015-Jan-29 23:33N 49°16' W 124°07'3 2.8
2015-Jan-29 22:34N 49°16' W 124°03'3 2.9
2015-Jan-29 21:33N 49°15' W 123°59'3 3.4
2015-Jan-29 20:33N 49°15' W 123°54'7 6.7
2015-Jan-29 19:33N 49°13' W 123°44'7 6.8
2015-Jan-29 18:34N 49°11' W 123°34'9 9.2
2015-Jan-29 17:33N 49°03' W 123°27'9 8.6
2015-Jan-29 16:33N 48°56' W 123°20'5 4.9
2015-Jan-29 15:32N 48°52' W 123°26'1 0.6
2015-Jan-29 14:33N 48°52' W 123°25'10 9.0
2015-Jan-29 13:28N 48°59' W 123°35'3 2.7
2015-Jan-29 12:31N 49°01' W 123°38'5 4.8
2015-Jan-29 11:25N 48°57' W 123°33'7 7.7
2015-Jan-29 10:28N 48°52' W 123°25'8 7.5
2015-Jan-29 09:27N 48°45' W 123°19'6 6.9
2015-Jan-29 08:33N 48°44' W 123°10'7 7.0
2015-Jan-29 07:33N 48°48' W 123°01'8 7.5
2015-Jan-29 06:33N 48°53' W 123°08'7 7.4
2015-Jan-29 05:33N 48°58' W 123°17'1110.6
2015-Jan-29 04:34N 49°08' W 123°24'1111.1
2015-Jan-29 03:33N 49°18' W 123°19'7 7.2
2015-Jan-29 02:33N 49°25' W 123°22'7 7.2
2015-Jan-29 01:31N 49°21' W 123°31'1414.9
2015-Jan-29 00:33N 49°07' W 123°34'1110.1
2015-Jan-28 23:30N 48°56' W 123°32'12 8.3
2015-Jan-28 22:06N 48°48' W 123°20'610.1
2015-Jan-28 21:33N 48°43' W 123°16'1110.6
2015-Jan-28 20:33N 48°32' W 123°12'9 8.5
2015-Jan-28 19:33N 48°24' W 123°12'38 2.1
2015-Jan-28 01:09N 49°02' W 123°22'610.8
2015-Jan-28 00:33N 49°07' W 123°28'1010.4
2015-Jan-27 23:33N 49°13' W 123°41'10 9.7
2015-Jan-27 22:32N 49°20' W 123°52'1010.1
2015-Jan-27 21:33N 49°21' W 124°07'1010.5
2015-Jan-27 20:33N 49°25' W 124°23'1212.0
2015-Jan-27 19:33N 49°34' W 124°34'1210.8
2015-Jan-27 18:25N 49°43' W 124°47'1010.8
2015-Jan-27 17:31N 49°50' W 124°57'4 2.1
2015-Jan-27 15:25N 49°52' W 124°52'8 9.4
2015-Jan-27 14:31N 49°50' W 124°39'11 9.9
2015-Jan-27 13:24N 49°45' W 124°24'8 9.9
2015-Jan-27 12:33N 49°39' W 124°14'9 9.4
2015-Jan-27 11:33N 49°32' W 124°05'9 9.5
2015-Jan-27 10:33N 49°25' W 123°55'9 8.9
2015-Jan-27 09:32N 49°22' W 123°42'9 9.4
2015-Jan-27 08:33N 49°16' W 123°31'8 8.5
2015-Jan-27 07:33N 49°12' W 123°20'9 8.6
2015-Jan-27 06:33N 49°03' W 123°19'10 9.8
2015-Jan-27 05:33N 48°57' W 123°07'10 9.7
2015-Jan-27 04:33N 48°48' W 123°00'1010.2
2015-Jan-27 03:33N 48°42' W 123°13'9 8.8
2015-Jan-27 02:33N 48°43' W 123°27'2 2.1
2015-Jan-27 01:33N 48°42' W 123°30'9 9.2
2015-Jan-27 00:33N 48°44' W 123°16'1211.6
2015-Jan-26 23:33N 48°32' W 123°12'1111.2
2015-Jan-26 22:33N 48°21' W 123°15'3 2.7
2015-Jan-26 21:33N 48°21' W 123°19'3 2.9
2015-Jan-26 20:33N 48°22' W 123°23'5 2.2
2015-Jan-26 18:29N 48°26' W 123°26'  
Track history (hours):
 
Tides and Currents Weather Stations Pressure Air Temp Water Temp Dewpoint Dewpoint Depression Visibility Wind Speed Wind Dir Waves Ship Positions

Pct Moose

Last reported at 2015-Jan-31 14:33 UTC. Time now 2015-Jan-31 14:42 UTC.
Position N 49°07' W 123°11'.

Type: Military. MMSI: 316013412.

Date/timePositionNaut miles runAvg speedWind from/ knotsBaromVisibWave heightAir tempDewpointWater temp
2015-Jan-31 14:33N 49°07' W 123°11'0 0.0
2015-Jan-31 13:33N 49°07' W 123°11'0 0.0
2015-Jan-31 12:33N 49°07' W 123°11'0 0.0
2015-Jan-31 11:29N 49°07' W 123°11'0 0.0
2015-Jan-31 10:32N 49°07' W 123°11'0 0.0
2015-Jan-31 09:30N 49°07' W 123°11'0 0.0
2015-Jan-31 08:33N 49°07' W 123°11'0 0.0
2015-Jan-31 07:26N 49°07' W 123°11'0 0.0
2015-Jan-31 06:29N 49°07' W 123°11'0 0.0
2015-Jan-31 05:32N 49°07' W 123°11'0 0.0
2015-Jan-31 04:32N 49°07' W 123°11'0 0.0
2015-Jan-31 03:32N 49°07' W 123°11'0 0.0
2015-Jan-31 02:32N 49°07' W 123°11'0 0.0
2015-Jan-31 01:31N 49°07' W 123°11'0 0.0
2015-Jan-31 00:31N 49°07' W 123°11'0 0.0
2015-Jan-30 23:31N 49°07' W 123°11'0 0.0
2015-Jan-30 22:31N 49°07' W 123°11'4 4.2
2015-Jan-30 21:33N 49°07' W 123°17'5 4.9
2015-Jan-30 20:33N 49°09' W 123°23'6 6.4
2015-Jan-30 19:34N 49°15' W 123°21'9 9.4
2015-Jan-30 18:33N 49°19' W 123°07'1 0.9
2015-Jan-30 17:33N 49°18' W 123°07'0 0.0
2015-Jan-30 16:33N 49°18' W 123°07'6 6.4
2015-Jan-30 15:33N 49°18' W 123°17'1515.0
2015-Jan-30 14:33N 49°22' W 123°39'1211.9
2015-Jan-30 13:33N 49°25' W 123°57'1210.2
2015-Jan-30 12:25N 49°34' W 124°08'26 8.9
2015-Jan-30 09:31N 49°52' W 124°36'6 6.3
2015-Jan-30 08:33N 49°48' W 124°43'1010.2
2015-Jan-30 07:33N 49°39' W 124°37'1212.0
2015-Jan-30 06:33N 49°30' W 124°25'1211.5
2015-Jan-30 05:33N 49°21' W 124°13'6 6.4
2015-Jan-30 04:33N 49°16' W 124°08'1 0.8
2015-Jan-30 03:33N 49°16' W 124°09'0 0.0
2015-Jan-30 02:33N 49°16' W 124°09'0 0.0
2015-Jan-30 01:33N 49°16' W 124°09'0 0.0
2015-Jan-30 00:33N 49°16' W 124°09'1 1.3
2015-Jan-29 23:33N 49°16' W 124°07'3 2.8
2015-Jan-29 22:34N 49°16' W 124°03'3 2.9
2015-Jan-29 21:33N 49°15' W 123°59'3 3.4
2015-Jan-29 20:33N 49°15' W 123°54'7 6.7
2015-Jan-29 19:33N 49°13' W 123°44'7 6.8
2015-Jan-29 18:34N 49°11' W 123°34'9 9.2
2015-Jan-29 17:33N 49°03' W 123°27'9 8.6
2015-Jan-29 16:33N 48°56' W 123°20'5 4.9
2015-Jan-29 15:32N 48°52' W 123°26'1 0.6
2015-Jan-29 14:33N 48°52' W 123°25'10 9.0
2015-Jan-29 13:28N 48°59' W 123°35'3 2.7
2015-Jan-29 12:31N 49°01' W 123°38'5 4.8
2015-Jan-29 11:25N 48°57' W 123°33'7 7.7
2015-Jan-29 10:28N 48°52' W 123°25'8 7.5
2015-Jan-29 09:27N 48°45' W 123°19'6 6.9
2015-Jan-29 08:33N 48°44' W 123°10'7 7.0
2015-Jan-29 07:33N 48°48' W 123°01'8 7.5
2015-Jan-29 06:33N 48°53' W 123°08'7 7.4
2015-Jan-29 05:33N 48°58' W 123°17'1110.6
2015-Jan-29 04:34N 49°08' W 123°24'1111.1
2015-Jan-29 03:33N 49°18' W 123°19'7 7.2
2015-Jan-29 02:33N 49°25' W 123°22'7 7.2
2015-Jan-29 01:31N 49°21' W 123°31'1414.9
2015-Jan-29 00:33N 49°07' W 123°34'1110.1
2015-Jan-28 23:30N 48°56' W 123°32'12 8.3
2015-Jan-28 22:06N 48°48' W 123°20'610.1
2015-Jan-28 21:33N 48°43' W 123°16'1110.6
2015-Jan-28 20:33N 48°32' W 123°12'9 8.5
2015-Jan-28 19:33N 48°24' W 123°12'38 2.1
2015-Jan-28 01:09N 49°02' W 123°22'610.8
2015-Jan-28 00:33N 49°07' W 123°28'1010.4
2015-Jan-27 23:33N 49°13' W 123°41'10 9.7
2015-Jan-27 22:32N 49°20' W 123°52'1010.1
2015-Jan-27 21:33N 49°21' W 124°07'1010.5
2015-Jan-27 20:33N 49°25' W 124°23'1212.0
2015-Jan-27 19:33N 49°34' W 124°34'1210.8
2015-Jan-27 18:25N 49°43' W 124°47'1010.8
2015-Jan-27 17:31N 49°50' W 124°57'4 2.1
2015-Jan-27 15:25N 49°52' W 124°52'8 9.4
2015-Jan-27 14:31N 49°50' W 124°39'11 9.9
2015-Jan-27 13:24N 49°45' W 124°24'8 9.9
2015-Jan-27 12:33N 49°39' W 124°14'9 9.4
2015-Jan-27 11:33N 49°32' W 124°05'9 9.5
2015-Jan-27 10:33N 49°25' W 123°55'9 8.9
2015-Jan-27 09:32N 49°22' W 123°42'9 9.4
2015-Jan-27 08:33N 49°16' W 123°31'8 8.5
2015-Jan-27 07:33N 49°12' W 123°20'9 8.6
2015-Jan-27 06:33N 49°03' W 123°19'10 9.8
2015-Jan-27 05:33N 48°57' W 123°07'10 9.7
2015-Jan-27 04:33N 48°48' W 123°00'1010.2
2015-Jan-27 03:33N 48°42' W 123°13'9 8.8
2015-Jan-27 02:33N 48°43' W 123°27'2 2.1
2015-Jan-27 01:33N 48°42' W 123°30'9 9.2
2015-Jan-27 00:33N 48°44' W 123°16'1211.6
2015-Jan-26 23:33N 48°32' W 123°12'1111.2
2015-Jan-26 22:33N 48°21' W 123°15'3 2.7
2015-Jan-26 21:33N 48°21' W 123°19'3 2.9
2015-Jan-26 20:33N 48°22' W 123°23'5 2.2
2015-Jan-26 18:29N 48°26' W 123°26'  

Dump ship's entire track history